Kezdőlap
METAR-TAF:

METAR-TAF

Repülőterek :

Clyde, Nunavut, Kanada

földrajzi szélesség: 70-29N, földrajzi hosszúság: 068-31W, magasság: 25 m

Jelenlegi meteorológiai megfigyelések

A jelentés 48 perccel ezelõtt készült, 19:00 UTC
Északnyugati szél 22 kt
Hőmérséklet -21°C
Páratartalom 84%
Légköri nyomás 1020 hPa
Látótávolság: 0.4 km
Borult 3200 lábon
erőteljes havazás, hófúvás

METAR: CYCY 171900Z 31022KT 1/4SM +SN BLSN OVC032 M21/M23 A3013 RMK BLSN2SC6 SLP208

Idő: 14:48 (19:48 UTC)

Előrejelzés

A jelentés 1 órával és 10 perccel ezelõtt készült, 18:38 UTC
Az előrejelzés 17-én 19 óra UTC és 18-én 07 óra UTC között érvényes
Északnyugati szél 22 kt
Látótávolság: 0.8 km
Borult 2000 lábon
enyhe havazás, hófúvás
17-én 19 óra UTC és 18-én 07 óra UTC között ideiglenes
Szakadozott felhőzet 3000 lábon
enyhe havazás

TAF: CYCY 171838Z 1719/1807 32022KT 1/2SM -SN BLSN OVC020 TEMPO 1719/1807 11/2SM -SN BKN030 RMK FCST BASED ON AUTO OBS. NXT FCST BY 180100Z

Meteorológiai megfigyelések és előrejelzések több, mint 4000 repülőtéren (METAR és TAF jelentéseket).

A térképen piros és sárga pontok jelzik az elérhető meteorológiai állomásokat.

Mozgassa az egeret a pont fölött, hogy megjelenjen az állomás neve.

Azután kattintson az időjárási megfigyelések és előrejelzések megtekintéséhez.

A térkép megváltoztatása: kattintson a fekete keresztel jelölt zöld gombra ráközelítéshez, a vonallal jelölt zöld gombra távolításhoz, vagy a zöld nyilakra a szomszédos térképek eléréséhez.


METAR-TAF: